createdAt,value
2019-03-22T00:00:58.956Z,75.17
2019-03-22T00:03:29.156Z,74.70
2019-03-22T00:05:59.329Z,70.17
2019-03-22T00:08:29.665Z,71.00
2019-03-22T00:11:00.249Z,71.93
2019-03-22T00:13:30.420Z,71.03
2019-03-22T00:16:00.668Z,69.20
2019-03-22T00:18:30.852Z,73.20
2019-03-22T00:21:01.090Z,72.27
2019-03-22T00:23:31.340Z,75.73
2019-03-22T00:26:01.613Z,72.47
2019-03-22T00:28:34.513Z,78.00
2019-03-22T00:31:44.500Z,75.53
2019-03-22T00:34:23.801Z,74.07
2019-03-22T00:36:54.170Z,76.73
2019-03-22T00:39:24.366Z,78.57
2019-03-22T00:41:54.618Z,74.40
2019-03-22T00:44:24.924Z,69.80
2019-03-22T00:46:55.229Z,70.60
2019-03-22T00:49:25.471Z,69.43
2019-03-22T00:51:55.728Z,61.50
2019-03-22T00:54:25.942Z,65.70
2019-03-22T00:56:56.324Z,66.87
2019-03-22T00:59:26.552Z,68.30
2019-03-22T01:02:03.024Z,66.23
2019-03-22T01:04:33.667Z,66.00
2019-03-22T01:07:03.791Z,67.13
2019-03-22T01:09:34.024Z,65.90
2019-03-22T01:12:04.365Z,62.60
2019-03-22T01:14:34.680Z,68.07
2019-03-22T01:17:04.939Z,65.07
2019-03-22T01:19:35.759Z,65.80
2019-03-22T01:22:05.887Z,66.10
2019-03-22T01:24:36.123Z,65.73
2019-03-22T01:27:06.581Z,64.50
2019-03-22T01:29:37.774Z,64.00
2019-03-22T01:32:08.005Z,66.40
2019-03-22T01:34:42.374Z,64.87
2019-03-22T01:37:13.106Z,66.07
2019-03-22T01:39:43.311Z,63.87
2019-03-22T01:42:13.477Z,67.83
2019-03-22T01:44:43.673Z,64.67
2019-03-22T01:47:13.955Z,65.13
2019-03-22T01:49:44.205Z,66.93
2019-03-22T01:52:14.436Z,61.07
2019-03-22T01:54:54.270Z,62.57
2019-03-22T01:57:24.482Z,61.43
2019-03-22T01:59:54.695Z,64.63
2019-03-22T02:02:24.913Z,64.60
2019-03-22T02:04:55.106Z,63.30
2019-03-22T02:07:25.272Z,64.87
2019-03-22T02:09:55.526Z,63.17
2019-03-22T02:12:26.099Z,62.43
2019-03-22T02:14:56.314Z,60.43
2019-03-22T02:17:26.568Z,58.33
2019-03-22T02:19:56.748Z,59.60
2019-03-22T02:22:26.944Z,59.13
2019-03-22T02:24:57.094Z,61.27
2019-03-22T02:27:30.364Z,60.77
2019-03-22T02:30:00.639Z,61.17
2019-03-22T02:32:31.081Z,59.77
2019-03-22T02:35:01.341Z,58.47
2019-03-22T02:37:31.502Z,59.67
2019-03-22T02:40:01.808Z,61.00
2019-03-22T02:42:31.907Z,60.77
2019-03-22T02:45:02.137Z,60.13
2019-03-22T02:47:32.535Z,59.73
2019-03-22T02:50:17.230Z,64.77
2019-03-22T02:52:40.461Z,62.70
2019-03-22T02:55:10.893Z,60.83
2019-03-22T02:57:41.032Z,62.30
2019-03-22T03:00:12.057Z,62.90
2019-03-22T03:02:42.277Z,60.00
2019-03-22T03:05:12.734Z,61.20
2019-03-22T03:07:45.840Z,59.37
2019-03-22T03:10:16.434Z,57.37
2019-03-22T03:12:46.575Z,56.37
2019-03-22T03:15:16.908Z,55.53
2019-03-22T03:17:47.149Z,55.13
2019-03-22T03:20:17.576Z,54.93
2019-03-22T03:22:47.879Z,55.00
2019-03-22T03:25:18.290Z,52.50
2019-03-22T03:27:48.443Z,51.33
2019-03-22T03:30:21.360Z,49.53
2019-03-22T03:32:51.526Z,50.33
2019-03-22T03:35:21.842Z,49.00
2019-03-22T03:37:52.038Z,50.00
2019-03-22T03:40:22.394Z,49.57
2019-03-22T03:42:52.598Z,50.70
2019-03-22T03:45:35.555Z,47.20
2019-03-22T03:48:06.958Z,46.43
2019-03-22T03:50:37.396Z,45.97
2019-03-22T03:53:07.817Z,45.73
2019-03-22T03:55:38.003Z,46.57
2019-03-22T03:58:08.130Z,48.17
2019-03-22T04:00:38.394Z,47.47
2019-03-22T04:03:08.593Z,48.77
2019-03-22T04:05:38.741Z,46.93
2019-03-22T04:08:08.943Z,47.47
2019-03-22T04:10:39.150Z,48.57
2019-03-22T04:13:09.348Z,47.80
2019-03-22T04:15:39.591Z,51.07
2019-03-22T04:18:09.866Z,57.67
2019-03-22T04:20:40.084Z,54.57
2019-03-22T04:23:10.324Z,53.27
2019-03-22T04:25:40.593Z,50.13
2019-03-22T04:28:10.724Z,52.73
2019-03-22T04:30:40.959Z,57.47
2019-03-22T04:33:11.066Z,59.67
2019-03-22T04:35:41.326Z,60.90
2019-03-22T04:38:11.509Z,60.67
2019-03-22T04:40:41.680Z,57.97
2019-03-22T04:43:11.824Z,59.17
2019-03-22T04:45:43.535Z,58.50
2019-03-22T04:48:24.967Z,58.87
2019-03-22T04:50:57.967Z,58.07
2019-03-22T04:53:31.136Z,59.13
2019-03-22T04:56:04.901Z,56.23
2019-03-22T04:58:36.568Z,57.97
2019-03-22T05:01:08.336Z,57.77
2019-03-22T05:03:40.068Z,56.27
2019-03-22T05:06:12.381Z,55.67
2019-03-22T05:08:43.450Z,53.10
2019-03-22T05:11:15.592Z,49.63
2019-03-22T05:13:48.602Z,48.60
2019-03-22T05:16:20.664Z,48.30
2019-03-22T05:18:51.642Z,46.63
2019-03-22T05:21:24.668Z,43.13
2019-03-22T05:24:00.097Z,45.93
2019-03-22T05:26:33.473Z,45.97
2019-03-22T05:29:05.547Z,44.00
2019-03-22T05:32:15.388Z,45.03
2019-03-22T05:34:45.568Z,44.80
2019-03-22T05:37:15.729Z,43.77
2019-03-22T05:39:45.921Z,42.77
2019-03-22T05:42:16.152Z,44.13
2019-03-22T05:44:46.855Z,44.90
2019-03-22T05:47:17.865Z,45.43
2019-03-22T05:49:48.007Z,45.53
2019-03-22T05:52:19.764Z,44.57
2019-03-22T05:54:50.017Z,44.90
2019-03-22T05:57:20.236Z,44.23
2019-03-22T05:59:50.508Z,47.53
2019-03-22T06:02:21.038Z,19.00
2019-03-22T06:04:51.778Z,49.80
2019-03-22T06:07:24.935Z,46.20
2019-03-22T06:09:55.113Z,43.57
2019-03-22T06:12:25.344Z,48.10
2019-03-22T06:14:55.705Z,49.13
2019-03-22T06:17:26.989Z,51.50
2019-03-22T06:19:57.158Z,50.47
2019-03-22T06:22:27.413Z,50.00
2019-03-22T06:24:57.688Z,50.57
2019-03-22T06:27:27.946Z,50.73
2019-03-22T06:29:58.207Z,50.50
2019-03-22T06:32:28.382Z,53.73
2019-03-22T06:34:58.560Z,51.77
2019-03-22T06:37:28.784Z,53.23
2019-03-22T06:39:59.062Z,38.43
2019-03-22T06:42:29.439Z,50.70
2019-03-22T06:44:59.922Z,52.20
2019-03-22T06:47:30.130Z,52.73
2019-03-22T06:50:00.452Z,53.03
2019-03-22T06:52:30.705Z,55.23
2019-03-22T06:55:01.475Z,56.07
2019-03-22T06:57:31.679Z,65.80
2019-03-22T07:00:06.726Z,56.10
2019-03-22T07:02:33.811Z,57.03
2019-03-22T07:05:04.077Z,58.10
2019-03-22T07:07:34.313Z,67.00
2019-03-22T07:10:04.810Z,55.67
2019-03-22T07:12:34.964Z,57.17
2019-03-22T07:15:06.036Z,57.53
2019-03-22T07:17:36.188Z,58.30
2019-03-22T07:20:07.637Z,57.00
2019-03-22T07:22:37.845Z,57.10
2019-03-22T07:25:07.980Z,58.10
2019-03-22T07:27:38.203Z,56.33
2019-03-22T07:30:18.187Z,65.13
2019-03-22T07:32:40.901Z,59.13
2019-03-22T07:35:11.132Z,56.23
2019-03-22T07:37:41.367Z,59.67
2019-03-22T07:40:12.091Z,91.37
2019-03-22T07:42:42.304Z,66.60
2019-03-22T07:45:13.043Z,57.47
2019-03-22T07:47:43.257Z,55.23
2019-03-22T07:50:13.824Z,56.83
2019-03-22T07:52:44.105Z,55.33
2019-03-22T07:55:14.364Z,56.67
2019-03-22T07:57:44.616Z,54.73
2019-03-22T08:00:15.029Z,53.63
2019-03-22T08:02:45.298Z,58.10
2019-03-22T08:05:15.539Z,113.70
2019-03-22T08:07:45.737Z,63.80
2019-03-22T08:10:17.807Z,54.67
2019-03-22T08:12:47.974Z,54.10
2019-03-22T08:15:35.518Z,54.07
2019-03-22T08:18:06.165Z,51.10
2019-03-22T08:20:38.669Z,55.97
2019-03-22T08:23:19.932Z,54.87
2019-03-22T08:25:50.304Z,53.53
2019-03-22T08:28:20.521Z,55.53
2019-03-22T08:30:50.707Z,55.40
2019-03-22T08:33:21.076Z,55.27
2019-03-22T08:35:51.273Z,74.00
2019-03-22T08:38:21.587Z,55.70
2019-03-22T08:40:53.590Z,53.77
2019-03-22T08:43:23.823Z,53.50
2019-03-22T08:45:54.069Z,50.90
2019-03-22T08:48:24.391Z,50.40
2019-03-22T08:50:54.563Z,47.97
2019-03-22T08:53:24.674Z,48.67
2019-03-22T08:55:54.965Z,51.53
2019-03-22T08:58:25.145Z,50.93
2019-03-22T09:00:57.712Z,48.80
2019-03-22T09:03:27.291Z,48.73
2019-03-22T09:05:57.404Z,47.40
2019-03-22T09:08:27.634Z,47.83
2019-03-22T09:10:58.043Z,47.20
2019-03-22T09:13:28.244Z,46.37
2019-03-22T09:15:58.384Z,44.57
2019-03-22T09:18:28.622Z,42.17
2019-03-22T09:20:58.805Z,42.73
2019-03-22T09:23:28.841Z,45.53
2019-03-22T09:25:59.161Z,44.20
2019-03-22T09:28:29.306Z,43.13
2019-03-22T09:31:09.819Z,42.20
2019-03-22T09:33:31.392Z,42.20
2019-03-22T09:36:01.557Z,44.03
2019-03-22T09:38:31.754Z,43.97
2019-03-22T09:41:01.943Z,46.57
2019-03-22T09:43:32.182Z,44.57
2019-03-22T09:46:02.352Z,46.60
2019-03-22T09:48:32.637Z,45.47
2019-03-22T09:51:02.764Z,39.37
2019-03-22T09:53:33.019Z,48.60
2019-03-22T09:56:03.225Z,42.53
2019-03-22T09:58:33.336Z,42.67
2019-03-22T10:01:03.640Z,76.93
2019-03-22T10:03:33.904Z,42.27
2019-03-22T10:06:04.151Z,39.27
2019-03-22T10:08:34.402Z,38.83
2019-03-22T10:11:04.643Z,39.27
2019-03-22T10:13:34.876Z,39.03
2019-03-22T10:16:05.074Z,38.90
2019-03-22T10:18:36.820Z,39.43
2019-03-22T10:21:07.161Z,34.43
2019-03-22T10:23:37.607Z,37.47
2019-03-22T10:26:07.813Z,38.43
2019-03-22T10:28:38.101Z,39.70
2019-03-22T10:31:08.375Z,36.77
2019-03-22T10:33:38.608Z,36.47
2019-03-22T10:36:08.821Z,36.93
2019-03-22T10:38:39.047Z,51.40
2019-03-22T10:41:13.374Z,36.27
2019-03-22T10:44:04.451Z,35.10
2019-03-22T10:46:34.697Z,32.63
2019-03-22T10:49:04.920Z,33.53
2019-03-22T10:51:35.220Z,65.80
2019-03-22T10:54:05.661Z,30.97
2019-03-22T10:56:35.768Z,30.67
2019-03-22T10:59:05.973Z,37.97
2019-03-22T11:01:48.315Z,26.47
2019-03-22T11:06:38.297Z,31.03
2019-03-22T11:09:09.684Z,27.77
2019-03-22T11:11:39.981Z,25.80
2019-03-22T11:14:10.125Z,23.67
2019-03-22T11:16:40.379Z,29.33
2019-03-22T11:19:10.698Z,24.23
2019-03-22T11:21:40.855Z,25.03
2019-03-22T11:24:11.198Z,30.33
2019-03-22T11:26:41.462Z,28.10
2019-03-22T11:29:11.624Z,27.73
2019-03-22T11:31:41.978Z,27.43
2019-03-22T11:34:12.236Z,26.70
2019-03-22T11:36:42.431Z,27.27
2019-03-22T11:39:15.702Z,24.20
2019-03-22T11:41:44.818Z,25.13
2019-03-22T11:44:15.049Z,26.20
2019-03-22T11:46:45.244Z,26.50
2019-03-22T11:49:15.546Z,26.60
2019-03-22T11:51:45.809Z,26.10
2019-03-22T11:54:16.032Z,28.90
2019-03-22T11:56:46.248Z,31.87
2019-03-22T11:59:16.487Z,32.50
2019-03-22T12:01:46.811Z,32.57
2019-03-22T12:04:17.057Z,32.30
2019-03-22T12:06:47.261Z,33.57
2019-03-22T12:09:17.536Z,34.43
2019-03-22T12:11:47.701Z,32.40
2019-03-22T12:14:17.982Z,33.00
2019-03-22T12:16:48.207Z,32.70
2019-03-22T12:19:18.449Z,31.90
2019-03-22T12:21:48.620Z,33.50
2019-03-22T12:24:18.856Z,33.07
2019-03-22T12:26:49.059Z,34.47
2019-03-22T12:29:19.208Z,31.07
2019-03-22T12:31:51.685Z,31.53
2019-03-22T12:34:21.907Z,32.57
2019-03-22T12:36:52.060Z,34.03
2019-03-22T12:39:22.243Z,33.83
2019-03-22T12:41:52.449Z,33.73
2019-03-22T12:44:22.665Z,34.10
2019-03-22T12:46:52.933Z,33.63
2019-03-22T12:49:23.217Z,51.80
2019-03-22T12:51:53.416Z,33.03
2019-03-22T12:54:23.757Z,34.93
2019-03-22T12:56:53.936Z,33.67
2019-03-22T12:59:24.090Z,32.77
2019-03-22T13:01:54.328Z,31.33
2019-03-22T13:04:24.453Z,32.17
2019-03-22T13:06:54.576Z,33.40
2019-03-22T13:09:24.781Z,31.97
2019-03-22T13:11:55.005Z,31.00
2019-03-22T13:14:25.177Z,36.30
2019-03-22T13:16:55.703Z,33.73
2019-03-22T13:19:25.810Z,34.13
2019-03-22T13:21:55.929Z,33.57
2019-03-22T13:24:28.183Z,33.73
2019-03-22T13:26:58.389Z,35.83
2019-03-22T13:29:28.613Z,33.80
2019-03-22T13:31:58.851Z,32.80
2019-03-22T13:34:29.122Z,33.27
2019-03-22T13:36:59.277Z,34.90
2019-03-22T13:39:29.529Z,33.87
2019-03-22T13:42:00.693Z,31.13
2019-03-22T13:44:31.019Z,35.20
2019-03-22T13:47:01.204Z,32.83
2019-03-22T13:49:31.412Z,31.70
2019-03-22T13:52:01.581Z,32.80
2019-03-22T13:54:31.760Z,34.27
2019-03-22T13:57:02.005Z,33.03
2019-03-22T13:59:32.224Z,32.93
2019-03-22T14:02:02.436Z,31.13
2019-03-22T14:04:32.626Z,34.33
2019-03-22T14:07:02.805Z,44.47
2019-03-22T14:09:32.996Z,32.07
2019-03-22T14:12:03.154Z,31.37
2019-03-22T14:14:33.405Z,30.83
2019-03-22T14:17:04.519Z,31.50
2019-03-22T14:19:34.696Z,31.80
2019-03-22T14:22:04.974Z,33.00
2019-03-22T14:24:35.133Z,32.43
2019-03-22T14:27:05.509Z,31.43
2019-03-22T14:29:35.877Z,31.37
2019-03-22T14:32:07.961Z,32.50
2019-03-22T14:34:38.017Z,34.67
2019-03-22T14:37:08.095Z,32.87
2019-03-22T14:39:40.285Z,35.00
2019-03-22T14:42:10.339Z,34.23
2019-03-22T14:44:40.372Z,35.80
2019-03-22T14:47:10.443Z,36.37
2019-03-22T14:49:40.523Z,36.00
2019-03-22T14:52:10.687Z,36.37
2019-03-22T14:54:40.908Z,35.57
2019-03-22T14:57:11.219Z,37.07
2019-03-22T14:59:41.421Z,35.43
2019-03-22T15:02:11.588Z,34.13
2019-03-22T15:04:41.769Z,35.47
2019-03-22T15:07:19.484Z,35.50
2019-03-22T15:09:46.278Z,45.67
2019-03-22T15:12:16.677Z,35.10
2019-03-22T15:15:05.757Z,33.90
2019-03-22T15:17:55.437Z,30.40
2019-03-22T15:20:44.532Z,30.27
2019-03-22T15:23:33.632Z,29.53
2019-03-22T15:26:41.075Z,28.17
2019-03-22T15:29:39.199Z,26.20
2019-03-22T15:32:43.455Z,28.83
2019-03-22T15:35:47.732Z,28.10
2019-03-22T15:38:39.747Z,30.70
2019-03-22T15:41:09.808Z,27.57
2019-03-22T15:43:39.892Z,28.40
2019-03-22T15:46:09.884Z,28.53
2019-03-22T15:48:39.970Z,26.87
2019-03-22T15:51:10.274Z,27.17
2019-03-22T15:53:40.514Z,27.03
2019-03-22T15:56:10.754Z,27.03
2019-03-22T15:58:41.000Z,27.03
2019-03-22T16:01:11.174Z,25.73
2019-03-22T16:03:44.372Z,25.53
2019-03-22T16:06:13.291Z,24.07
2019-03-22T16:08:43.541Z,25.00
2019-03-22T16:11:13.834Z,25.37
2019-03-22T16:13:44.035Z,25.07
2019-03-22T16:16:14.220Z,26.57
2019-03-22T16:18:44.487Z,24.50
2019-03-22T16:21:14.699Z,27.20
2019-03-22T16:23:44.867Z,25.70
2019-03-22T16:26:15.156Z,24.30
2019-03-22T16:28:45.357Z,25.20
2019-03-22T16:31:15.674Z,26.00
2019-03-22T16:33:54.012Z,27.93
2019-03-22T16:36:17.723Z,28.97
2019-03-22T16:38:47.969Z,29.07
2019-03-22T16:41:18.200Z,29.37
2019-03-22T16:43:48.440Z,26.93
2019-03-22T16:46:18.632Z,26.07
2019-03-22T16:48:48.912Z,28.70
2019-03-22T16:51:19.191Z,28.07
2019-03-22T16:53:49.470Z,28.57
2019-03-22T16:56:19.794Z,30.07
2019-03-22T16:58:49.993Z,29.83
2019-03-22T17:01:20.197Z,31.73
2019-03-22T17:03:50.426Z,29.53
2019-03-22T17:06:20.879Z,32.93
2019-03-22T17:08:51.078Z,33.07
2019-03-22T17:11:21.353Z,28.67
2019-03-22T17:13:51.664Z,30.03
2019-03-22T17:16:23.254Z,29.37
2019-03-22T17:18:53.585Z,29.07
2019-03-22T17:21:23.838Z,31.13
2019-03-22T17:23:54.160Z,31.67
2019-03-22T17:26:24.883Z,32.60
2019-03-22T17:28:55.474Z,31.17
2019-03-22T17:31:31.432Z,32.10
2019-03-22T17:34:14.675Z,35.17
2019-03-22T17:37:29.756Z,33.53
2019-03-22T17:40:09.967Z,33.83
2019-03-22T17:42:47.666Z,36.07
2019-03-22T17:45:20.414Z,36.77
2019-03-22T17:47:52.771Z,34.67
2019-03-22T17:50:22.808Z,34.50
2019-03-22T17:52:52.932Z,33.50
2019-03-22T17:55:22.971Z,33.90
2019-03-22T17:57:53.873Z,37.90
2019-03-22T18:00:25.499Z,42.90
2019-03-22T18:02:55.557Z,40.23
2019-03-22T18:05:32.823Z,50.03
2019-03-22T18:08:02.899Z,87.90
2019-03-22T18:10:32.899Z,88.53
2019-03-22T18:13:02.994Z,45.80
2019-03-22T18:15:33.010Z,45.43
2019-03-22T18:18:03.065Z,46.27
2019-03-22T18:20:33.267Z,55.53
2019-03-22T18:23:03.280Z,50.10
2019-03-22T18:25:33.328Z,40.43
2019-03-22T18:28:03.477Z,51.60
2019-03-22T18:30:33.569Z,43.83
2019-03-22T18:33:03.857Z,44.70
2019-03-22T18:35:38.438Z,40.33
2019-03-22T18:38:14.944Z,40.07
2019-03-22T18:41:29.715Z,43.17
2019-03-22T18:43:44.046Z,42.30
2019-03-22T18:46:14.554Z,37.47
2019-03-22T18:48:54.934Z,43.27
2019-03-22T18:51:49.148Z,67.03
2019-03-22T18:54:40.262Z,34.73
2019-03-22T18:57:40.104Z,33.73
2019-03-22T19:00:42.416Z,33.07
2019-03-22T19:03:22.405Z,32.90
2019-03-22T19:06:08.528Z,35.37
2019-03-22T19:08:58.097Z,33.77
2019-03-22T19:11:39.838Z,34.43
2019-03-22T19:14:22.859Z,44.63
2019-03-22T19:16:59.740Z,34.40
2019-03-22T19:19:29.958Z,49.07
2019-03-22T19:22:00.282Z,43.23
2019-03-22T19:24:30.535Z,38.43
2019-03-22T19:27:01.208Z,50.13
2019-03-22T19:29:31.443Z,40.93
2019-03-22T19:32:01.662Z,46.40
2019-03-22T19:34:31.991Z,65.07
2019-03-22T19:37:02.149Z,38.33
2019-03-22T19:39:32.443Z,40.53
2019-03-22T19:42:02.726Z,74.40
2019-03-22T19:44:32.975Z,54.60
2019-03-22T19:47:03.390Z,36.63
2019-03-22T19:49:33.719Z,37.07
2019-03-22T19:52:06.306Z,41.20
2019-03-22T19:54:36.720Z,45.17
2019-03-22T19:57:06.877Z,37.97
2019-03-22T19:59:37.122Z,44.07
2019-03-22T20:02:07.489Z,42.33
2019-03-22T20:04:37.693Z,44.37
2019-03-22T20:07:07.997Z,43.93
2019-03-22T20:09:38.374Z,42.07
2019-03-22T20:12:09.968Z,39.47
2019-03-22T20:14:40.297Z,39.60
2019-03-22T20:17:10.630Z,27.23
2019-03-22T20:19:40.797Z,37.13
2019-03-22T20:22:11.303Z,36.13
2019-03-22T20:24:41.669Z,42.30
2019-03-22T20:27:11.854Z,44.67
2019-03-22T20:29:42.055Z,46.63
2019-03-22T20:32:12.239Z,74.10
2019-03-22T20:34:42.461Z,79.77
2019-03-22T20:37:13.402Z,271.43
2019-03-22T20:39:43.555Z,131.97
2019-03-22T20:42:13.781Z,94.80
2019-03-22T20:44:47.116Z,71.20
2019-03-22T20:47:17.301Z,102.57
2019-03-22T20:49:47.561Z,113.63
2019-03-22T20:52:23.024Z,85.80
2019-03-22T20:54:53.282Z,104.40
2019-03-22T20:57:25.806Z,84.77
2019-03-22T20:59:56.037Z,97.80
2019-03-22T21:02:29.240Z,44.60
2019-03-22T21:04:58.956Z,55.03
2019-03-22T21:07:31.120Z,99.10
2019-03-22T21:10:01.390Z,81.43
2019-03-22T21:12:34.380Z,97.37
2019-03-22T21:15:04.872Z,68.63
2019-03-22T21:17:35.097Z,103.60
2019-03-22T21:20:05.780Z,78.40
2019-03-22T21:22:36.036Z,50.80
2019-03-22T21:25:06.737Z,54.63
2019-03-22T21:27:37.940Z,51.77
2019-03-22T21:30:08.404Z,52.43
2019-03-22T21:32:45.037Z,52.10
2019-03-22T21:35:21.622Z,54.93
2019-03-22T21:37:42.698Z,49.70
2019-03-22T21:40:13.104Z,50.73
2019-03-22T21:42:43.373Z,52.83
2019-03-22T21:45:13.560Z,50.43
2019-03-22T21:47:43.782Z,52.90
2019-03-22T21:50:18.302Z,56.33
2019-03-22T21:52:48.485Z,55.20
2019-03-22T21:55:18.675Z,53.10
2019-03-22T21:57:48.957Z,53.77
2019-03-22T22:00:19.157Z,53.87
2019-03-22T22:02:56.097Z,53.33
2019-03-22T22:05:27.917Z,52.03
2019-03-22T22:07:58.140Z,52.10
2019-03-22T22:10:28.417Z,52.23
2019-03-22T22:12:58.700Z,51.60
2019-03-22T22:15:28.979Z,49.73
2019-03-22T22:17:59.273Z,49.07
2019-03-22T22:20:29.467Z,49.07
2019-03-22T22:23:01.424Z,48.77
2019-03-22T22:25:31.799Z,48.10
2019-03-22T22:28:02.037Z,46.97
2019-03-22T22:30:32.171Z,47.27
2019-03-22T22:33:02.360Z,46.17
2019-03-22T22:35:32.528Z,49.77
2019-03-22T22:38:02.689Z,48.53
2019-03-22T22:40:32.921Z,50.37
2019-03-22T22:43:03.233Z,52.60
2019-03-22T22:45:44.431Z,53.90
2019-03-22T22:48:11.958Z,52.87
2019-03-22T22:50:48.294Z,51.10
2019-03-22T22:53:20.238Z,48.53
2019-03-22T22:55:51.822Z,49.50
2019-03-22T22:58:22.020Z,49.93
2019-03-22T23:00:53.377Z,52.23
2019-03-22T23:03:27.067Z,51.03
2019-03-22T23:05:57.353Z,51.03
2019-03-22T23:08:27.543Z,48.67
2019-03-22T23:10:57.773Z,46.00
2019-03-22T23:13:31.069Z,50.23
2019-03-22T23:16:01.478Z,49.63
2019-03-22T23:18:31.598Z,50.33
2019-03-22T23:21:01.906Z,52.80
2019-03-22T23:23:32.131Z,52.83
2019-03-22T23:26:02.293Z,51.63
2019-03-22T23:28:32.481Z,48.83
2019-03-22T23:31:02.734Z,50.27
2019-03-22T23:33:32.991Z,49.80
2019-03-22T23:36:03.238Z,49.53
2019-03-22T23:38:36.008Z,50.43
2019-03-22T23:41:07.412Z,50.47
2019-03-22T23:43:37.603Z,51.53
2019-03-22T23:46:07.903Z,53.23
2019-03-22T23:48:38.132Z,49.87
2019-03-22T23:51:08.401Z,49.87
2019-03-22T23:53:38.702Z,50.47
2019-03-22T23:56:08.849Z,51.50
2019-03-22T23:58:39.030Z,49.97
